Terminal Aerodrome Forecast
Issued by NWS Topeka, KS

Home | Current Version | Previous Version | Graphics & Text | Print | Product List | Glossary On
Versions: 1 2 3 4 5 6 7 8 9 10 11 12 13 14 15 16 17 18 19 20 21 22 23 24 25
009
FTUS43 KTOP 200520
TAFTOP
TAF
KTOP 200520Z 2006/2106 11003KT 1/2SM FG OVC004
     FM200800 11003KT 1/4SM FG OVC002
     FM201500 14006KT 3SM BR OVC003
     FM201900 16005KT P6SM BKN015=

USA.gov is the U.S. government's official web portal to all federal, state and local government web resources and services.